Time;durP1;ratioP1;P1;durP2;ratioP2;P2;SDS_P1;SDS_P2;PMS_P1;PMS_P2;Temp;Humidity;BMP_temperature;BMP_pressure;BME280_temperature;BME280_humidity;BME280_pressure;Samples;Min_cycle;Max_cycle;Signal;HPM_P1;HPM_P2
2023/07/31 00:01:30;;;;;;;5.97;1.88;;;;;;;20.76;69.80;100781.19;5044543;27;98816;-63
2023/07/31 00:03:56;;;;;;;2.47;0.98;;;;;;;20.67;69.90;100768.47;5051571;27;96937;-64
2023/07/31 00:06:23;;;;;;;4.50;1.33;;;;;;;20.73;69.89;100768.00;5045055;27;99241;-64
2023/07/31 00:08:49;;;;;;;6.80;1.10;;;;;;;21.07;69.04;100766.19;5049571;27;99199;-63
2023/07/31 00:11:16;;;;;;;5.72;1.20;;;;;;;20.80;69.80;100769.25;5050122;27;96753;-63
2023/07/31 00:13:42;;;;;;;4.72;1.30;;;;;;;20.78;70.67;100770.31;5046804;27;98551;-63
2023/07/31 00:16:08;;;;;;;2.67;1.02;;;;;;;20.91;70.39;100769.25;5049253;27;96951;-64
2023/07/31 00:18:36;;;;;;;2.17;1.20;;;;;;;20.88;71.12;100766.78;5045166;27;99205;-64
2023/07/31 00:21:03;;;;;;;6.03;1.33;;;;;;;20.82;71.06;100761.03;5051777;27;96792;-64
2023/07/31 00:23:29;;;;;;;3.08;1.15;;;;;;;20.85;71.09;100761.69;5045490;27;97148;-66
2023/07/31 00:25:56;;;;;;;5.20;1.27;;;;;;;20.94;70.60;100766.31;5049019;27;99351;-64
2023/07/31 00:28:23;;;;;;;5.07;1.35;;;;;;;20.94;70.44;100752.03;5049274;27;97798;-65
2023/07/31 00:30:49;;;;;;;5.53;1.42;;;;;;;20.74;71.07;100745.56;5042573;27;96814;-64
2023/07/31 00:33:15;;;;;;;5.18;1.25;;;;;;;20.87;70.52;100740.91;5046769;27;97684;-64
2023/07/31 00:35:43;;;;;;;5.68;1.95;;;;;;;20.82;70.73;100744.94;5048864;27;99661;-64
2023/07/31 00:38:09;;;;;;;4.97;1.17;;;;;;;20.92;70.76;100746.78;5047847;27;98852;-63
2023/07/31 00:40:37;;;;;;;4.43;1.30;;;;;;;20.74;71.97;100745.56;5044816;27;96745;-64
2023/07/31 00:43:04;;;;;;;5.60;1.30;;;;;;;20.78;71.24;100744.31;5050045;27;96889;-64
2023/07/31 00:45:31;;;;;;;4.22;1.25;;;;;;;20.70;72.47;100741.38;5045597;27;99200;-64
2023/07/31 00:47:58;;;;;;;5.57;1.20;;;;;;;20.83;71.91;100736.75;5049783;27;99015;-64
2023/07/31 00:50:25;;;;;;;6.72;1.33;;;;;;;20.93;71.83;100737.75;5051429;27;97101;-64
2023/07/31 00:52:53;;;;;;;3.47;1.13;;;;;;;21.02;71.79;100738.84;5050576;27;96914;-64
2023/07/31 00:55:21;;;;;;;4.63;1.20;;;;;;;20.69;72.89;100739.66;5048185;27;99354;-64
2023/07/31 00:57:49;;;;;;;5.10;1.40;;;;;;;20.78;73.16;100738.09;5043611;27;98078;-64
2023/07/31 01:00:15;;;;;;;5.03;1.33;;;;;;;20.89;72.28;100746.16;5047129;27;96764;-63
2023/07/31 01:02:42;;;;;;;5.28;1.40;;;;;;;21.02;71.79;100731.66;5045406;27;98719;-63
2023/07/31 01:05:09;;;;;;;6.30;1.48;;;;;;;21.09;71.11;100718.59;5049448;27;99833;-64
2023/07/31 01:07:43;;;;;;;2.83;1.10;;;;;;;21.13;71.60;100720.06;5052433;27;99208;-64
2023/07/31 01:10:18;;;;;;;3.22;1.20;;;;;;;20.83;72.31;100728.69;5054417;27;97036;-63
2023/07/31 01:12:46;;;;;;;3.47;1.30;;;;;;;21.04;72.15;100729.69;5054296;27;97365;-64
2023/07/31 01:15:14;;;;;;;3.90;1.40;;;;;;;20.97;72.25;100725.78;5054181;27;99222;-64
2023/07/31 01:17:43;;;;;;;4.00;1.35;;;;;;;21.04;72.34;100721.66;5053777;27;98870;-65
2023/07/31 01:20:12;;;;;;;3.63;1.70;;;;;;;20.95;73.02;100722.38;5052971;27;97200;-64
2023/07/31 01:22:55;;;;;;;2.30;1.25;;;;;;;21.19;72.12;100724.13;5054046;27;97104;-64
2023/07/31 01:25:40;;;;;;;2.45;1.38;;;;;;;21.32;72.42;100716.78;5054122;27;98898;-64
2023/07/31 01:28:12;;;;;;;2.65;1.48;;;;;;;21.31;71.30;100712.38;5054603;27;99025;-63
2023/07/31 01:30:44;;;;;;;3.75;1.42;;;;;;;21.27;72.16;100727.03;5054027;27;96839;-63
2023/07/31 01:33:11;;;;;;;4.55;1.60;;;;;;;21.16;73.66;100721.66;5051718;27;96738;-63
2023/07/31 01:35:38;;;;;;;2.85;1.30;;;;;;;21.17;73.34;100718.88;5050150;27;99285;-64
2023/07/31 01:38:05;;;;;;;4.82;1.45;;;;;;;21.22;73.06;100719.34;5048948;27;100484;-64
2023/07/31 01:40:32;;;;;;;4.18;1.50;;;;;;;21.12;73.00;100712.97;5053128;27;98176;-64
2023/07/31 01:42:58;;;;;;;2.97;1.50;;;;;;;21.22;72.83;100702.38;5049703;27;98996;-63
2023/07/31 01:45:26;;;;;;;5.55;1.52;;;;;;;21.41;71.43;100705.28;5050927;27;99208;-63
2023/07/31 01:47:53;;;;;;;5.43;1.92;;;;;;;21.15;72.34;100704.66;5052355;27;98779;-63
2023/07/31 01:50:19;;;;;;;3.40;1.58;;;;;;;21.25;71.17;100694.06;5053705;27;96896;-63
2023/07/31 01:52:45;;;;;;;6.25;1.80;;;;;;;21.47;71.37;100697.56;5048920;27;96880;-62
2023/07/31 01:55:12;;;;;;;4.47;1.60;;;;;;;21.39;71.51;100688.44;5052176;27;98860;-72
2023/07/31 01:57:38;;;;;;;5.18;1.40;;;;;;;21.22;71.91;100689.78;5049453;27;101220;-73
2023/07/31 02:00:06;;;;;;;4.05;1.40;;;;;;;21.36;71.43;100692.22;5052726;27;96688;-71
2023/07/31 02:02:34;;;;;;;4.30;1.58;;;;;;;21.55;71.58;100688.88;5051305;27;97733;-72
2023/07/31 02:05:00;;;;;;;6.07;1.70;;;;;;;21.66;71.00;100683.47;5051932;27;98926;-71
2023/07/31 02:07:26;;;;;;;4.60;1.60;;;;;;;21.59;71.08;100682.28;5052487;27;99151;-72
2023/07/31 02:09:53;;;;;;;5.93;1.77;;;;;;;21.48;71.18;100683.16;5048888;27;98770;-72
2023/07/31 02:12:20;;;;;;;6.22;2.05;;;;;;;21.73;70.82;100681.97;5052839;27;96760;-72
2023/07/31 02:14:46;;;;;;;4.30;1.65;;;;;;;21.45;72.10;100674.50;5048579;27;99047;-72
2023/07/31 02:17:12;;;;;;;2.83;1.70;;;;;;;21.53;72.13;100676.56;5051537;27;99415;-71
2023/07/31 02:19:40;;;;;;;5.25;1.50;;;;;;;21.40;71.66;100680.22;5051195;27;96848;-73
2023/07/31 02:22:07;;;;;;;6.95;1.73;;;;;;;21.34;71.83;100678.03;5054007;27;97105;-75
2023/07/31 02:24:33;;;;;;;5.85;1.83;;;;;;;21.59;70.70;100674.22;5048798;27;100479;-73
2023/07/31 02:26:59;;;;;;;6.30;2.17;;;;;;;21.37;71.95;100676.94;5050399;27;99206;-74
2023/07/31 02:29:26;;;;;;;4.72;1.58;;;;;;;21.61;72.50;100671.38;5049927;27;96772;-73
2023/07/31 02:31:52;;;;;;;3.22;2.03;;;;;;;21.30;72.68;100678.41;5048949;27;97310;-73
2023/07/31 02:34:18;;;;;;;3.47;1.50;;;;;;;21.45;70.95;100669.13;5050423;27;98192;-73
2023/07/31 02:36:46;;;;;;;6.47;2.25;;;;;;;21.26;72.50;100671.59;5050006;27;98795;-73
2023/07/31 02:39:12;;;;;;;2.97;1.50;;;;;;;21.23;73.32;100661.09;5051690;27;96779;-73
2023/07/31 02:41:39;;;;;;;8.23;1.90;;;;;;;21.22;71.48;100664.75;5052181;27;96984;-73
2023/07/31 02:44:05;;;;;;;4.80;1.50;;;;;;;21.26;70.40;100659.03;5049990;27;99423;-73
2023/07/31 02:46:32;;;;;;;7.00;1.80;;;;;;;21.26;71.34;100647.41;5050216;27;98817;-73
2023/07/31 02:48:58;;;;;;;2.80;1.80;;;;;;;20.96;71.73;100648.88;5049640;27;96802;-73
2023/07/31 02:51:24;;;;;;;2.67;1.70;;;;;;;20.80;72.33;100656.47;5050499;27;97242;-73
2023/07/31 02:53:52;;;;;;;3.85;1.85;;;;;;;21.07;72.92;100651.53;5047646;27;99348;-73
2023/07/31 02:56:19;;;;;;;4.57;1.83;;;;;;;21.48;72.12;100650.88;5046170;27;98899;-73
2023/07/31 02:58:45;;;;;;;6.85;2.13;;;;;;;21.47;71.96;100651.00;5048654;27;96899;-74
2023/07/31 03:01:11;;;;;;;3.35;1.75;;;;;;;21.40;71.77;100649.81;5052447;27;96806;-74
2023/07/31 03:03:38;;;;;;;9.50;2.08;;;;;;;21.48;72.02;100652.72;5051246;27;98908;-73
2023/07/31 03:06:04;;;;;;;4.78;2.20;;;;;;;21.47;72.23;100648.31;5049812;27;98254;-72
2023/07/31 03:08:30;;;;;;;4.97;1.95;;;;;;;21.23;72.40;100653.03;5052248;27;97355;-73
2023/07/31 03:10:59;;;;;;;6.28;2.40;;;;;;;21.33;72.48;100659.38;5053076;27;96803;-73
2023/07/31 03:13:25;;;;;;;6.90;2.70;;;;;;;21.30;71.86;100656.91;5051492;27;98880;-74
2023/07/31 03:15:51;;;;;;;7.55;2.03;;;;;;;20.97;72.92;100647.91;5048231;27;99246;-76
2023/07/31 03:18:18;;;;;;;4.20;2.40;;;;;;;21.12;71.91;100642.28;5051199;27;97816;-74
2023/07/31 03:20:44;;;;;;;4.82;2.20;;;;;;;21.08;72.19;100647.88;5053303;27;97278;-75
2023/07/31 03:23:11;;;;;;;7.45;2.38;;;;;;;21.20;72.84;100647.91;5051617;27;99319;-73
2023/07/31 03:25:38;;;;;;;5.75;2.47;;;;;;;21.23;72.22;100636.91;5049735;27;101724;-75
2023/07/31 03:28:05;;;;;;;3.67;2.38;;;;;;;21.19;72.56;100640.81;5052014;27;96812;-75
2023/07/31 03:30:32;;;;;;;6.78;3.15;;;;;;;21.06;73.12;100635.56;5053732;27;97216;-75
2023/07/31 03:32:58;;;;;;;4.80;2.65;;;;;;;21.41;72.55;100630.00;5048977;27;99212;-75
2023/07/31 03:35:24;;;;;;;6.38;2.50;;;;;;;21.38;72.35;100630.28;5051351;27;99640;-73
2023/07/31 03:37:51;;;;;;;9.10;2.70;;;;;;;21.45;71.89;100635.03;5050186;27;96822;-74
2023/07/31 03:40:17;;;;;;;4.57;2.20;;;;;;;21.30;72.10;100630.06;5051403;27;96851;-73
2023/07/31 03:42:43;;;;;;;6.68;2.88;;;;;;;21.44;71.84;100629.78;5051093;27;98853;-74
2023/07/31 03:45:11;;;;;;;7.50;2.33;;;;;;;21.16;72.42;100627.63;5050742;27;98828;-73
2023/07/31 03:47:38;;;;;;;4.40;2.40;;;;;;;21.24;72.20;100622.50;5052535;27;97081;-73
2023/07/31 03:50:04;;;;;;;7.32;2.60;;;;;;;21.37;72.13;100610.63;5048488;27;99280;-73
2023/07/31 03:52:31;;;;;;;6.75;2.53;;;;;;;21.15;72.61;100615.13;5050734;27;98675;-73
2023/07/31 03:54:57;;;;;;;4.13;2.53;;;;;;;21.24;71.53;100617.97;5049701;27;98952;-73
2023/07/31 03:57:24;;;;;;;7.70;2.58;;;;;;;21.28;71.95;100618.56;5052596;27;96835;-73
2023/07/31 03:59:50;;;;;;;8.45;3.40;;;;;;;21.36;71.69;100618.78;5051229;27;97525;-73
2023/07/31 04:02:18;;;;;;;7.78;2.70;;;;;;;21.14;72.41;100616.97;5048740;27;99035;-72
2023/07/31 04:04:45;;;;;;;7.35;3.03;;;;;;;21.31;71.66;100613.81;5045382;27;99168;-72
2023/07/31 04:07:11;;;;;;;6.80;3.03;;;;;;;21.03;71.54;100615.16;5050143;27;96883;-72
2023/07/31 04:09:37;;;;;;;6.43;3.20;;;;;;;21.14;72.33;100616.09;5049202;27;96877;-72
2023/07/31 04:12:04;;;;;;;8.45;3.10;;;;;;;21.25;71.89;100613.47;5050832;27;99122;-73
2023/07/31 04:14:31;;;;;;;3.05;2.33;;;;;;;21.25;70.99;100602.72;5047357;27;98968;-72
2023/07/31 04:16:57;;;;;;;6.97;2.20;;;;;;;21.06;71.42;100606.88;5045402;27;96779;-72
2023/07/31 04:19:25;;;;;;;4.38;2.53;;;;;;;21.16;71.41;100603.44;5050378;27;96772;-72
2023/07/31 04:21:52;;;;;;;4.50;2.53;;;;;;;20.97;71.73;100604.91;5046647;27;99011;-73
2023/07/31 04:24:24;;;;;;;5.90;2.45;;;;;;;21.13;71.74;100598.31;5044951;27;99456;-73
2023/07/31 04:26:50;;;;;;;7.53;2.55;;;;;;;21.04;71.64;100595.38;5045528;27;96926;-72
2023/07/31 04:29:16;;;;;;;4.85;2.33;;;;;;;21.27;71.22;100582.78;5045620;27;97313;-72
2023/07/31 04:31:43;;;;;;;3.28;2.20;;;;;;;21.13;71.44;100590.25;5048840;27;98896;-73
2023/07/31 04:34:09;;;;;;;7.93;2.58;;;;;;;21.16;71.74;100595.38;5049096;27;100462;-72
2023/07/31 04:36:37;;;;;;;6.55;2.25;;;;;;;21.22;71.08;100592.19;5047403;27;97179;-73
2023/07/31 04:39:04;;;;;;;6.28;2.60;;;;;;;21.30;70.90;100592.44;5048197;27;96949;-72
2023/07/31 04:41:30;;;;;;;6.15;2.22;;;;;;;21.27;71.42;100588.16;5052192;27;100275;-72
2023/07/31 04:43:56;;;;;;;5.25;2.42;;;;;;;21.33;71.23;100586.81;5054635;27;100006;-72
2023/07/31 04:46:23;;;;;;;6.57;2.90;;;;;;;21.26;71.41;100582.91;5055385;27;96897;-73
2023/07/31 04:48:49;;;;;;;5.40;2.58;;;;;;;21.22;71.42;100581.44;5055304;27;96888;-75
2023/07/31 04:51:16;;;;;;;7.88;2.67;;;;;;;21.19;71.34;100576.34;5051924;27;98898;-73
2023/07/31 04:53:44;;;;;;;4.93;2.40;;;;;;;21.09;72.45;100578.88;5054582;27;98764;-75
2023/07/31 04:56:10;;;;;;;5.95;2.25;;;;;;;21.12;71.31;100585.84;5053684;27;97742;-72
2023/07/31 04:58:36;;;;;;;6.63;2.92;;;;;;;21.27;71.70;100587.28;5055023;27;96928;-73
2023/07/31 05:01:03;;;;;;;6.68;2.33;;;;;;;21.41;71.11;100590.56;5054618;27;98982;-72
2023/07/31 05:03:29;;;;;;;6.40;2.20;;;;;;;21.48;70.36;100585.50;5054578;27;98860;-73
2023/07/31 05:05:55;;;;;;;5.47;2.35;;;;;;;21.52;70.55;100589.69;5054803;27;96846;-74
2023/07/31 05:08:22;;;;;;;6.47;2.45;;;;;;;21.57;70.42;100582.06;5055286;27;96768;-73
2023/07/31 05:10:50;;;;;;;4.90;2.03;;;;;;;21.90;69.84;100580.19;5054951;27;99107;-73
2023/07/31 05:13:17;;;;;;;6.05;2.55;;;;;;;22.05;69.57;100571.72;5044612;27;97711;-74
2023/07/31 05:15:43;;;;;;;3.47;2.10;;;;;;;22.12;68.86;100577.44;5046460;27;97008;-74
2023/07/31 05:18:09;;;;;;;4.68;3.40;;;;;;;22.19;68.82;100583.97;5053550;27;96834;-72
2023/07/31 05:20:36;;;;;;;7.20;2.80;;;;;;;22.07;69.76;100577.81;5054095;27;99731;-73
2023/07/31 05:23:02;;;;;;;6.15;2.83;;;;;;;22.00;70.10;100582.00;5053188;27;97825;-75
2023/07/31 05:25:29;;;;;;;9.05;2.78;;;;;;;22.17;68.21;100575.19;5051627;27;96756;-73
2023/07/31 05:27:57;;;;;;;7.30;2.50;;;;;;;22.09;68.93;100572.28;5054320;27;97113;-73
2023/07/31 05:30:23;;;;;;;4.57;2.50;;;;;;;21.97;69.56;100574.22;5045501;27;98953;-75
2023/07/31 05:32:50;;;;;;;5.13;2.42;;;;;;;22.19;69.38;100573.19;5049217;27;98711;-73
2023/07/31 05:35:17;;;;;;;12.85;4.20;;;;;;;22.01;69.86;100566.72;5048382;27;98520;-74
2023/07/31 05:37:43;;;;;;;8.25;3.60;;;;;;;21.97;70.04;100574.22;5050032;27;96838;-74
2023/07/31 05:40:10;;;;;;;5.55;2.50;;;;;;;21.96;69.43;100567.13;5053640;27;100550;-73
2023/07/31 05:42:38;;;;;;;9.73;2.83;;;;;;;21.91;70.08;100563.09;5047554;27;98066;-75
2023/07/31 05:45:07;;;;;;;6.65;2.20;;;;;;;22.16;68.89;100568.09;5050642;27;98581;-72
2023/07/31 05:47:34;;;;;;;5.78;2.30;;;;;;;22.00;69.17;100571.25;5048313;27;98797;-73
2023/07/31 05:50:00;;;;;;;6.82;2.33;;;;;;;21.93;69.59;100553.03;5053697;27;98159;-73
2023/07/31 05:52:28;;;;;;;5.85;2.22;;;;;;;22.18;68.90;100558.06;5046198;27;99119;-74
2023/07/31 05:54:55;;;;;;;5.47;2.17;;;;;;;22.08;69.04;100551.75;5050489;27;96746;-72
2023/07/31 05:57:21;;;;;;;5.63;2.28;;;;;;;22.14;68.97;100548.53;5053447;27;97711;-73
2023/07/31 05:59:48;;;;;;;9.90;2.53;;;;;;;22.06;69.27;100556.41;5054059;27;97621;-74
2023/07/31 06:02:16;;;;;;;6.83;2.20;;;;;;;21.86;69.30;100553.56;5047615;27;99070;-74
2023/07/31 06:04:42;;;;;;;5.15;2.13;;;;;;;22.21;68.61;100557.78;5046059;27;96975;-72
2023/07/31 06:07:09;;;;;;;5.30;1.77;;;;;;;22.15;68.88;100550.22;5053101;27;99008;-75
2023/07/31 06:09:35;;;;;;;7.70;2.28;;;;;;;22.51;68.21;100557.78;5051938;27;98201;-74
2023/07/31 06:12:02;;;;;;;5.00;2.10;;;;;;;22.43;67.82;100549.53;5051073;27;99338;-74
2023/07/31 06:14:28;;;;;;;10.07;2.88;;;;;;;22.22;68.92;100554.09;5053880;27;97090;-74
2023/07/31 06:16:54;;;;;;;10.00;2.10;;;;;;;22.15;69.21;100550.22;5054024;27;97762;-74
2023/07/31 06:19:22;;;;;;;7.28;2.10;;;;;;;22.15;69.28;100545.72;5045727;27;100867;-72
2023/07/31 06:21:49;;;;;;;9.07;2.45;;;;;;;22.16;69.17;100550.09;5049627;27;101916;-73
2023/07/31 06:24:18;;;;;;;9.27;2.50;;;;;;;22.13;69.55;100546.81;5053396;27;97032;-72
2023/07/31 06:26:45;;;;;;;6.13;2.05;;;;;;;22.07;69.96;100550.03;5053500;27;96794;-72
2023/07/31 06:29:11;;;;;;;8.70;2.58;;;;;;;22.30;69.73;100554.28;5042876;27;99260;-73
2023/07/31 06:31:38;;;;;;;3.95;2.20;;;;;;;22.37;68.78;100551.91;5045918;27;101739;-73
2023/07/31 06:34:05;;;;;;;4.78;2.10;;;;;;;22.35;69.42;100552.03;5048935;27;99109;-72
2023/07/31 06:36:32;;;;;;;6.25;2.22;;;;;;;22.35;68.79;100554.72;5053877;27;97181;-65
2023/07/31 06:38:59;;;;;;;3.67;2.10;;;;;;;22.42;69.09;100547.81;5050054;27;99299;-65
2023/07/31 06:41:26;;;;;;;5.70;2.20;;;;;;;22.57;68.51;100551.88;5051684;27;98774;-64
2023/07/31 06:43:52;;;;;;;6.07;2.15;;;;;;;22.49;69.35;100549.00;5046510;27;97646;-65
2023/07/31 06:46:19;;;;;;;5.55;2.38;;;;;;;22.68;69.05;100542.81;5043734;27;97142;-66
2023/07/31 06:48:45;;;;;;;5.50;1.83;;;;;;;22.66;68.89;100550.19;5048840;27;97751;-64
2023/07/31 06:51:11;;;;;;;7.22;2.15;;;;;;;22.47;69.11;100544.72;5050554;27;97978;-63
2023/07/31 06:53:39;;;;;;;6.43;2.30;;;;;;;22.72;68.92;100546.09;5051270;27;96744;-65
2023/07/31 06:56:05;;;;;;;5.20;2.03;;;;;;;22.45;68.50;100546.72;5049871;27;97161;-63
2023/07/31 06:58:32;;;;;;;2.83;1.60;;;;;;;22.67;68.07;100546.50;5050502;27;99073;-64
2023/07/31 07:00:58;;;;;;;7.88;2.03;;;;;;;22.90;67.27;100552.56;5048413;27;98738;-64
2023/07/31 07:03:25;;;;;;;2.47;1.60;;;;;;;23.02;67.01;100548.78;5051860;27;97132;-73
2023/07/31 07:05:51;;;;;;;3.20;2.17;;;;;;;22.99;66.91;100541.81;5049022;27;97057;-72
2023/07/31 07:08:18;;;;;;;5.35;2.20;;;;;;;22.88;67.03;100549.16;5050827;27;97835;-72
2023/07/31 07:10:46;;;;;;;4.60;1.90;;;;;;;22.84;67.71;100543.19;5048755;27;100548;-72
2023/07/31 07:13:13;;;;;;;5.93;2.05;;;;;;;22.72;67.90;100548.78;5051090;27;96804;-75
2023/07/31 07:15:40;;;;;;;6.60;2.10;;;;;;;22.63;68.72;100556.72;5050022;27;97089;-75
2023/07/31 07:18:07;;;;;;;6.88;2.03;;;;;;;22.66;68.83;100553.72;5047969;27;97791;-77
2023/07/31 07:20:33;;;;;;;7.50;1.95;;;;;;;22.63;68.90;100551.31;5046499;27;99055;-75
2023/07/31 07:23:00;;;;;;;5.40;2.10;;;;;;;22.61;68.66;100558.69;5051117;27;97220;-72
2023/07/31 07:25:26;;;;;;;7.43;2.00;;;;;;;22.24;69.03;100555.69;5043649;27;97094;-75
2023/07/31 07:27:54;;;;;;;5.40;2.00;;;;;;;22.31;70.23;100550.63;5048037;27;99028;-73
2023/07/31 07:30:21;;;;;;;6.10;2.38;;;;;;;22.41;70.17;100553.34;5047535;27;97556;-72
2023/07/31 07:32:47;;;;;;;10.20;2.78;;;;;;;22.40;70.15;100546.25;5051286;27;97952;-73
2023/07/31 07:35:13;;;;;;;6.25;2.25;;;;;;;22.47;70.17;100545.56;5049026;27;96769;-72
2023/07/31 07:37:40;;;;;;;3.60;1.80;;;;;;;22.47;70.03;100547.41;5047880;27;97599;-73
2023/07/31 07:40:08;;;;;;;5.43;1.90;;;;;;;22.31;69.65;100542.53;5050067;27;100809;-72
2023/07/31 07:42:34;;;;;;;7.00;2.20;;;;;;;22.89;69.00;100540.94;5050046;27;96818;-73
2023/07/31 07:45:03;;;;;;;4.93;2.17;;;;;;;23.00;68.64;100543.50;5049364;27;96817;-72
2023/07/31 07:47:29;;;;;;;4.30;1.88;;;;;;;22.77;68.05;100541.19;5048572;27;98185;-73
2023/07/31 07:49:55;;;;;;;4.13;1.70;;;;;;;23.17;67.46;100538.44;5043532;27;99430;-72
2023/07/31 07:52:22;;;;;;;6.72;1.90;;;;;;;23.23;66.62;100532.50;5048216;27;97329;-72
2023/07/31 07:54:48;;;;;;;4.93;1.85;;;;;;;23.21;67.49;100531.78;5045678;27;96830;-72
2023/07/31 07:57:14;;;;;;;7.45;2.30;;;;;;;23.04;67.70;100538.69;5050316;27;99299;-72
2023/07/31 07:59:41;;;;;;;5.40;1.80;;;;;;;23.02;67.75;100533.47;5048762;27;100263;-72
2023/07/31 08:02:09;;;;;;;7.38;2.10;;;;;;;22.60;69.62;100535.44;5045208;27;97862;-73
2023/07/31 08:04:36;;;;;;;4.80;1.58;;;;;;;22.26;71.93;100524.09;5035546;27;96825;-73
2023/07/31 08:07:02;;;;;;;7.35;1.55;;;;;;;22.39;71.88;100531.06;5046653;27;99051;-73
2023/07/31 08:09:28;;;;;;;2.58;1.60;;;;;;;22.60;70.48;100535.44;5046629;27;98977;-72
2023/07/31 08:11:57;;;;;;;6.05;1.98;;;;;;;23.08;69.38;100529.34;5044230;27;97539;-72
2023/07/31 08:14:24;;;;;;;2.72;1.40;;;;;;;22.95;69.09;100526.06;5049481;27;98052;-74
2023/07/31 08:16:50;;;;;;;7.80;2.08;;;;;;;22.90;70.25;100515.72;5048001;27;99141;-71
2023/07/31 08:19:18;;;;;;;3.90;1.75;;;;;;;22.85;69.73;100517.09;5043217;27;99802;-72
2023/07/31 08:21:44;;;;;;;2.28;1.45;;;;;;;23.11;69.32;100520.13;5043376;27;96928;-71
2023/07/31 08:24:11;;;;;;;3.30;1.40;;;;;;;23.03;69.21;100520.84;5041988;27;97183;-71
2023/07/31 08:26:37;;;;;;;1.95;1.48;;;;;;;23.08;68.31;100518.56;5046435;27;98528;-73
2023/07/31 08:29:04;;;;;;;3.15;1.50;;;;;;;22.80;69.72;100522.03;5041706;27;98841;-75
2023/07/31 08:31:30;;;;;;;3.42;1.48;;;;;;;22.48;71.14;100519.50;5044569;27;97330;-74
2023/07/31 08:33:57;;;;;;;3.17;1.20;;;;;;;22.54;71.01;100517.13;5048309;27;96818;-73
2023/07/31 08:36:25;;;;;;;2.17;1.20;;;;;;;22.39;72.03;100520.31;5042065;27;98457;-72
2023/07/31 08:38:52;;;;;;;3.67;1.70;;;;;;;22.49;71.70;100516.69;5043834;27;97242;-72
2023/07/31 08:41:18;;;;;;;3.47;1.55;;;;;;;22.71;70.94;100507.53;5040819;27;96820;-72
2023/07/31 08:43:46;;;;;;;4.28;1.70;;;;;;;22.60;71.31;100523.78;5051249;27;96840;-75
2023/07/31 08:46:14;;;;;;;3.22;1.40;;;;;;;22.96;70.54;100517.84;5039954;27;100955;-73
2023/07/31 08:48:42;;;;;;;4.13;1.38;;;;;;;23.22;69.17;100520.00;5046120;27;98861;-72
2023/07/31 08:51:09;;;;;;;3.17;1.50;;;;;;;23.22;68.30;100518.16;5037845;27;97111;-72
2023/07/31 08:53:37;;;;;;;2.38;1.50;;;;;;;23.45;68.04;100518.72;5044428;27;97449;-73
2023/07/31 08:56:04;;;;;;;2.38;1.20;;;;;;;23.61;68.31;100518.19;5039358;27;99572;-72
2023/07/31 08:58:32;;;;;;;3.47;1.63;;;;;;;23.86;66.71;100514.88;5047253;27;98747;-72
2023/07/31 09:01:01;;;;;;;5.03;1.42;;;;;;;23.56;67.69;100513.22;5046588;27;97194;-72
2023/07/31 09:03:29;;;;;;;1.80;1.42;;;;;;;23.21;68.26;100512.91;5047179;27;97042;-72
2023/07/31 09:05:59;;;;;;;7.75;1.52;;;;;;;23.16;68.40;100505.25;5048441;27;98131;-71
2023/07/31 09:08:30;;;;;;;3.60;1.45;;;;;;;23.53;67.06;100507.25;5049213;27;98947;-72
2023/07/31 09:11:00;;;;;;;2.45;1.38;;;;;;;23.60;66.39;100513.78;5047729;27;96641;-72
2023/07/31 09:13:27;;;;;;;3.97;1.27;;;;;;;23.36;66.55;100509.66;5041346;27;96783;-72
2023/07/31 09:15:54;;;;;;;1.65;1.05;;;;;;;23.17;67.55;100509.63;5041429;27;100932;-72
2023/07/31 09:18:22;;;;;;;2.05;1.40;;;;;;;23.26;68.30;100511.47;5038746;27;99238;-72
2023/07/31 09:21:01;;;;;;;2.50;1.30;;;;;;;23.01;69.75;100507.50;5047204;27;96783;-72
2023/07/31 09:23:41;;;;;;;3.28;1.25;;;;;;;22.99;69.89;100514.00;5040870;27;96860;-73
2023/07/31 09:26:09;;;;;;;2.33;1.10;;;;;;;23.01;70.03;100509.34;5040536;27;99399;-73
2023/07/31 09:28:35;;;;;;;1.15;0.80;;;;;;;22.98;69.74;100501.53;5043652;27;100050;-73
2023/07/31 09:31:02;;;;;;;1.90;1.67;;;;;;;23.11;69.71;100512.88;5046665;27;96714;-72
2023/07/31 09:33:28;;;;;;;1.50;1.08;;;;;;;22.82;70.19;100507.47;5051264;27;97261;-72
2023/07/31 09:35:54;;;;;;;2.90;1.00;;;;;;;22.47;72.13;100509.72;5049357;27;98935;-73
2023/07/31 09:38:21;;;;;;;1.95;0.75;;;;;;;22.57;71.76;100511.47;5046559;27;98571;-73
2023/07/31 09:40:49;;;;;;;1.23;0.70;;;;;;;22.41;72.75;100504.88;5053170;27;96711;-72
2023/07/31 09:43:20;;;;;;;3.80;0.90;;;;;;;22.63;72.35;100513.63;5050693;27;96915;-73
2023/07/31 09:45:47;;;;;;;3.03;1.02;;;;;;;22.82;71.39;100509.31;5047366;27;98944;-74
2023/07/31 09:48:15;;;;;;;0.70;0.70;;;;;;;22.75;70.87;100510.84;5047984;27;101911;-71
2023/07/31 09:50:43;;;;;;;1.38;0.73;;;;;;;22.74;70.68;100498.38;5049669;27;97123;-72
2023/07/31 09:53:10;;;;;;;2.22;1.05;;;;;;;22.93;71.41;100501.09;5049542;27;97049;-73
2023/07/31 09:55:38;;;;;;;1.20;0.70;;;;;;;22.88;70.27;100500.66;5048738;27;101271;-73
2023/07/31 09:58:05;;;;;;;0.90;0.73;;;;;;;23.15;69.37;100500.84;5048342;27;98206;-73
2023/07/31 10:00:34;;;;;;;2.42;0.80;;;;;;;23.41;69.05;100499.28;5046436;27;96825;-72
2023/07/31 10:03:02;;;;;;;3.47;1.33;;;;;;;23.12;69.29;100498.41;5050552;27;97358;-73
2023/07/31 10:05:33;;;;;;;2.72;0.90;;;;;;;23.31;69.36;100493.03;5046724;27;99306;-73
2023/07/31 10:08:00;;;;;;;1.30;1.20;;;;;;;23.42;67.75;100484.81;5047062;27;97763;-73
2023/07/31 10:10:28;;;;;;;3.35;1.20;;;;;;;23.78;66.50;100494.03;5035795;27;97306;-71
2023/07/31 10:12:56;;;;;;;0.98;0.93;;;;;;;23.98;66.57;100492.13;5049185;27;97293;-73
2023/07/31 10:15:23;;;;;;;4.38;1.45;;;;;;;23.93;66.27;100477.38;5047968;27;99092;-73
2023/07/31 10:17:52;;;;;;;5.22;1.70;;;;;;;23.83;66.53;100480.94;5046664;27;99273;-73
2023/07/31 10:20:18;;;;;;;3.63;1.70;;;;;;;23.35;67.44;100481.00;5047166;27;97171;-72
2023/07/31 10:22:46;;;;;;;3.63;2.13;;;;;;;23.21;68.36;100494.88;5047442;27;97165;-72
2023/07/31 10:25:13;;;;;;;6.18;1.88;;;;;;;22.87;69.83;100488.19;5049661;27;98962;-74
2023/07/31 10:27:40;;;;;;;4.57;2.00;;;;;;;22.98;70.25;100488.91;5045337;27;96793;-67
2023/07/31 10:30:10;;;;;;;5.75;2.20;;;;;;;23.16;71.02;100482.84;5052281;27;96758;-67
2023/07/31 10:32:41;;;;;;;4.38;2.10;;;;;;;23.12;69.89;100470.63;5051280;27;97161;-65
2023/07/31 10:35:10;;;;;;;3.40;2.20;;;;;;;23.39;68.77;100471.63;5051144;27;98931;-66
2023/07/31 10:37:39;;;;;;;5.43;2.30;;;;;;;23.65;69.31;100474.59;5039288;27;99582;-65
2023/07/31 10:40:07;;;;;;;4.40;2.42;;;;;;;23.96;68.03;100469.81;5045168;27;100025;-64
2023/07/31 10:42:35;;;;;;;3.80;2.22;;;;;;;24.08;66.48;100465.13;5045380;27;96934;-64
2023/07/31 10:45:04;;;;;;;4.32;2.35;;;;;;;24.66;64.45;100465.72;5044930;27;97989;-65
2023/07/31 10:47:30;;;;;;;5.50;2.40;;;;;;;24.67;64.25;100461.16;5049522;27;98968;-64
2023/07/31 10:50:18;;;;;;;5.28;2.60;;;;;;;25.23;61.68;100450.97;5050032;27;96860;-64
2023/07/31 10:52:47;;;;;;;5.55;2.13;;;;;;;25.26;61.34;100447.97;5046553;27;96813;-65
2023/07/31 10:55:30;;;;;;;6.25;2.60;;;;;;;25.51;60.33;100440.88;5048630;27;97877;-64
2023/07/31 10:57:59;;;;;;;5.53;2.70;;;;;;;25.47;60.96;100434.06;5051351;27;97187;-64
2023/07/31 11:00:27;;;;;;;5.53;2.70;;;;;;;25.38;60.83;100424.22;5051682;27;97084;-65
2023/07/31 11:02:58;;;;;;;6.47;2.35;;;;;;;25.65;60.39;100416.00;5055866;27;96851;-64
2023/07/31 11:05:45;;;;;;;7.20;2.75;;;;;;;25.80;59.37;100421.66;5045408;27;97764;-63
2023/07/31 11:08:13;;;;;;;5.93;2.38;;;;;;;25.89;59.56;100433.38;5042071;27;98809;-65
2023/07/31 11:10:40;;;;;;;5.18;2.65;;;;;;;25.79;59.07;100420.81;5051394;27;97400;-63
2023/07/31 11:13:07;;;;;;;4.65;2.65;;;;;;;24.95;59.92;100428.56;5045075;27;96841;-65
2023/07/31 11:15:33;;;;;;;5.90;2.72;;;;;;;24.61;61.21;100424.81;5035725;27;98819;-64
2023/07/31 11:18:03;;;;;;;10.27;2.60;;;;;;;24.81;60.76;100420.13;5041007;27;99443;-65
2023/07/31 11:20:30;;;;;;;5.75;2.95;;;;;;;24.95;60.37;100425.84;5050194;27;96806;-64
2023/07/31 11:23:02;;;;;;;4.28;2.80;;;;;;;24.65;59.42;100418.09;5045249;27;97092;-66
2023/07/31 11:25:30;;;;;;;5.88;3.00;;;;;;;24.80;59.73;100426.53;5042174;27;98913;-64